createdAt,value
2018-12-02T00:00:12.005Z,22.48
2018-12-02T00:02:38.705Z,22.49
2018-12-02T00:05:05.358Z,22.50
2018-12-02T00:07:31.998Z,22.49
2018-12-02T00:09:58.708Z,22.52
2018-12-02T00:12:25.344Z,22.51
2018-12-02T00:14:52.004Z,22.54
2018-12-02T00:17:18.652Z,22.55
2018-12-02T00:19:45.289Z,22.60
2018-12-02T00:22:11.976Z,22.56
2018-12-02T00:24:38.637Z,22.57
2018-12-02T00:27:05.272Z,22.57
2018-12-02T00:29:31.931Z,22.60
2018-12-02T00:31:58.627Z,22.56
2018-12-02T00:34:25.272Z,22.55
2018-12-02T00:36:52.058Z,22.53
2018-12-02T00:39:18.688Z,22.51
2018-12-02T00:41:45.326Z,22.42
2018-12-02T00:44:12.018Z,22.52
2018-12-02T00:46:38.676Z,22.52
2018-12-02T00:49:05.369Z,22.40
2018-12-02T00:51:32.063Z,22.43
2018-12-02T00:53:58.802Z,22.42
2018-12-02T00:56:25.489Z,22.44
2018-12-02T00:58:52.125Z,22.44
2018-12-02T01:01:18.896Z,22.49
2018-12-02T01:03:45.544Z,22.50
2018-12-02T01:06:12.185Z,22.52
2018-12-02T01:08:38.830Z,22.51
2018-12-02T01:11:05.524Z,22.52
2018-12-02T01:13:32.234Z,22.52
2018-12-02T01:15:58.870Z,22.55
2018-12-02T01:18:25.515Z,22.53
2018-12-02T01:20:52.168Z,22.53
2018-12-02T01:23:18.807Z,22.53
2018-12-02T01:25:45.453Z,22.41
2018-12-02T01:28:12.106Z,22.41
2018-12-02T01:30:38.798Z,22.43
2018-12-02T01:33:05.499Z,22.42
2018-12-02T01:35:32.143Z,22.37
2018-12-02T01:37:58.790Z,22.38
2018-12-02T01:40:25.428Z,22.38
2018-12-02T01:42:52.120Z,22.41
2018-12-02T01:45:18.749Z,22.42
2018-12-02T01:47:45.455Z,22.42
2018-12-02T01:50:12.097Z,22.45
2018-12-02T01:52:38.732Z,22.48
2018-12-02T01:55:05.387Z,22.47
2018-12-02T01:57:32.028Z,22.41
2018-12-02T01:59:58.681Z,22.48
2018-12-02T02:02:25.326Z,22.44
2018-12-02T02:04:52.031Z,22.45
2018-12-02T02:07:18.729Z,22.42
2018-12-02T02:09:45.370Z,22.29
2018-12-02T02:12:12.013Z,22.34
2018-12-02T02:14:38.657Z,22.34
2018-12-02T02:17:05.301Z,22.28
2018-12-02T02:19:31.951Z,22.28
2018-12-02T02:21:58.604Z,22.27
2018-12-02T02:24:25.250Z,22.29
2018-12-02T02:26:51.947Z,22.30
2018-12-02T02:29:18.642Z,22.35
2018-12-02T02:31:45.351Z,22.35
2018-12-02T02:34:11.984Z,22.21
2018-12-02T02:36:38.664Z,22.38
2018-12-02T02:39:05.368Z,22.35
2018-12-02T02:41:32.003Z,22.38
2018-12-02T02:43:58.686Z,22.37
2018-12-02T02:46:25.324Z,22.40
2018-12-02T02:48:51.977Z,22.41
2018-12-02T02:51:18.654Z,22.40
2018-12-02T02:53:45.293Z,22.37
2018-12-02T02:56:11.933Z,22.34
2018-12-02T02:58:38.571Z,22.21
2018-12-02T03:01:05.235Z,22.28
2018-12-02T03:03:31.880Z,22.30
2018-12-02T03:05:58.512Z,22.21
2018-12-02T03:08:25.164Z,22.21
2018-12-02T03:10:51.850Z,22.22
2018-12-02T03:13:18.495Z,22.28
2018-12-02T03:15:45.195Z,22.25
2018-12-02T03:18:11.902Z,22.26
2018-12-02T03:20:38.541Z,22.23
2018-12-02T03:23:05.201Z,22.01
2018-12-02T03:25:31.891Z,21.79
2018-12-02T03:27:58.530Z,21.75
2018-12-02T03:30:25.177Z,21.87
2018-12-02T03:32:51.826Z,22.01
2018-12-02T03:35:18.460Z,22.02
2018-12-02T03:37:45.155Z,21.92
2018-12-02T03:40:11.888Z,22.00
2018-12-02T03:42:38.416Z,21.99
2018-12-02T03:45:05.079Z,22.05
2018-12-02T03:47:31.731Z,22.07
2018-12-02T03:49:58.428Z,22.09
2018-12-02T03:52:25.074Z,22.15
2018-12-02T03:54:51.714Z,22.12
2018-12-02T03:57:18.373Z,22.19
2018-12-02T03:59:45.022Z,22.18
2018-12-02T04:02:11.717Z,22.21
2018-12-02T04:04:38.352Z,22.19
2018-12-02T04:07:05.078Z,22.23
2018-12-02T04:09:31.693Z,22.20
2018-12-02T04:11:58.391Z,22.22
2018-12-02T04:14:25.092Z,22.12
2018-12-02T04:16:51.789Z,22.06
2018-12-02T04:19:18.431Z,22.14
2018-12-02T04:21:45.158Z,22.11
2018-12-02T04:24:11.863Z,22.08
2018-12-02T04:26:38.559Z,22.06
2018-12-02T04:29:05.201Z,22.12
2018-12-02T04:31:31.847Z,22.14
2018-12-02T04:33:58.536Z,22.17
2018-12-02T04:36:25.182Z,22.12
2018-12-02T04:38:51.926Z,22.17
2018-12-02T04:41:18.562Z,22.13
2018-12-02T04:43:45.210Z,22.20
2018-12-02T04:46:11.846Z,22.20
2018-12-02T04:48:38.544Z,22.21
2018-12-02T04:51:05.185Z,22.24
2018-12-02T04:53:31.900Z,22.21
2018-12-02T04:55:58.544Z,22.22
2018-12-02T04:58:25.244Z,22.20
2018-12-02T05:00:51.892Z,22.12
2018-12-02T05:03:18.535Z,22.12
2018-12-02T05:05:45.197Z,22.14
2018-12-02T05:08:11.853Z,22.14
2018-12-02T05:10:38.491Z,22.08
2018-12-02T05:13:05.184Z,22.11
2018-12-02T05:15:31.900Z,22.07
2018-12-02T05:17:58.538Z,22.15
2018-12-02T05:20:25.172Z,22.10
2018-12-02T05:22:51.826Z,22.16
2018-12-02T05:25:18.761Z,22.17
2018-12-02T05:27:45.157Z,22.21
2018-12-02T05:30:11.907Z,22.19
2018-12-02T05:32:38.599Z,22.19
2018-12-02T05:35:05.248Z,22.21
2018-12-02T05:37:31.894Z,22.19
2018-12-02T05:39:58.551Z,22.21
2018-12-02T05:42:25.199Z,22.21
2018-12-02T05:44:51.837Z,22.12
2018-12-02T05:47:18.557Z,22.07
2018-12-02T05:49:45.197Z,22.14
2018-12-02T05:52:11.850Z,22.16
2018-12-02T05:54:38.527Z,22.04
2018-12-02T05:57:05.157Z,22.05
2018-12-02T05:59:31.801Z,22.08
2018-12-02T06:01:58.453Z,22.08
2018-12-02T06:04:26.204Z,22.06
2018-12-02T06:06:52.841Z,22.15
2018-12-02T06:09:19.557Z,22.17
2018-12-02T06:11:46.212Z,22.19
2018-12-02T06:14:12.849Z,22.19
2018-12-02T06:16:39.505Z,22.19
2018-12-02T06:19:06.145Z,22.19
2018-12-02T06:21:32.830Z,22.23
2018-12-02T06:23:59.483Z,22.24
2018-12-02T06:26:26.129Z,22.24
2018-12-02T06:28:52.765Z,22.23
2018-12-02T06:31:19.475Z,22.30
2018-12-02T06:33:46.114Z,22.26
2018-12-02T06:36:12.755Z,22.21
2018-12-02T06:38:39.402Z,22.07
2018-12-02T06:41:06.106Z,22.17
2018-12-02T06:43:32.800Z,22.16
2018-12-02T06:45:59.448Z,22.16
2018-12-02T06:48:26.136Z,22.16
2018-12-02T06:50:52.783Z,22.13
2018-12-02T06:53:19.475Z,22.19
2018-12-02T06:55:46.454Z,22.22
2018-12-02T06:58:13.110Z,22.20
2018-12-02T07:00:39.744Z,22.21
2018-12-02T07:03:06.389Z,22.21
2018-12-02T07:05:33.039Z,22.21
2018-12-02T07:07:59.701Z,22.30
2018-12-02T07:10:26.353Z,22.29
2018-12-02T07:12:53.001Z,22.32
2018-12-02T07:15:19.644Z,22.37
2018-12-02T07:17:46.337Z,22.33
2018-12-02T07:20:12.992Z,22.37
2018-12-02T07:22:39.749Z,22.21
2018-12-02T07:25:06.413Z,22.24
2018-12-02T07:27:33.053Z,22.23
2018-12-02T07:29:59.781Z,22.26
2018-12-02T07:32:26.384Z,22.19
2018-12-02T07:34:53.032Z,22.23
2018-12-02T07:37:19.677Z,22.28
2018-12-02T07:39:46.370Z,22.32
2018-12-02T07:42:13.020Z,22.34
2018-12-02T07:44:39.722Z,22.36
2018-12-02T07:47:06.367Z,22.39
2018-12-02T07:49:33.026Z,22.43
2018-12-02T07:51:59.777Z,22.47
2018-12-02T07:54:26.418Z,22.48
2018-12-02T07:56:53.117Z,22.50
2018-12-02T07:59:19.765Z,22.51
2018-12-02T08:01:46.459Z,22.56
2018-12-02T08:04:13.111Z,22.57
2018-12-02T08:06:39.801Z,22.57
2018-12-02T08:09:06.460Z,22.54
2018-12-02T08:11:33.110Z,22.42
2018-12-02T08:13:59.745Z,22.56
2018-12-02T08:16:26.389Z,22.60
2018-12-02T08:18:53.038Z,22.58
2018-12-02T08:21:19.689Z,22.68
2018-12-02T08:23:46.334Z,22.76
2018-12-02T08:26:13.028Z,22.78
2018-12-02T08:28:39.666Z,22.88
2018-12-02T08:31:06.314Z,22.91
2018-12-02T08:33:32.964Z,22.96
2018-12-02T08:35:59.602Z,22.96
2018-12-02T08:38:26.306Z,23.03
2018-12-02T08:40:52.949Z,23.07
2018-12-02T08:43:19.591Z,23.13
2018-12-02T08:45:46.240Z,23.23
2018-12-02T08:48:12.891Z,23.24
2018-12-02T08:50:39.581Z,23.28
2018-12-02T08:53:06.272Z,23.24
2018-12-02T08:55:32.921Z,23.35
2018-12-02T08:57:59.575Z,23.38
2018-12-02T09:00:26.268Z,23.42
2018-12-02T09:02:52.907Z,23.39
2018-12-02T09:05:19.558Z,23.44
2018-12-02T09:07:46.197Z,23.44
2018-12-02T09:10:12.851Z,23.47
2018-12-02T09:12:39.547Z,23.49
2018-12-02T09:15:06.184Z,23.50
2018-12-02T09:17:34.762Z,23.51
2018-12-02T09:19:59.486Z,23.57
2018-12-02T09:22:26.188Z,23.59
2018-12-02T09:24:52.881Z,23.62
2018-12-02T09:27:19.549Z,23.58
2018-12-02T09:29:46.204Z,23.61
2018-12-02T09:32:12.884Z,23.72
2018-12-02T09:34:39.546Z,23.64
2018-12-02T09:37:06.189Z,23.67
2018-12-02T09:39:32.893Z,23.69
2018-12-02T09:41:59.538Z,23.68
2018-12-02T09:44:29.099Z,23.71
2018-12-02T09:46:55.821Z,23.72
2018-12-02T09:49:25.757Z,23.73
2018-12-02T09:51:52.405Z,23.76
2018-12-02T09:54:23.338Z,23.75
2018-12-02T09:56:45.693Z,23.74
2018-12-02T09:59:12.387Z,23.66
2018-12-02T10:01:39.035Z,23.81
2018-12-02T10:04:05.725Z,23.82
2018-12-02T10:06:32.423Z,23.83
2018-12-02T10:08:59.060Z,23.89
2018-12-02T10:11:25.754Z,23.90
2018-12-02T10:13:52.398Z,23.85
2018-12-02T10:16:19.048Z,23.87
2018-12-02T10:18:45.690Z,23.87
2018-12-02T10:21:12.391Z,23.80
2018-12-02T10:23:39.023Z,23.92
2018-12-02T10:26:05.752Z,23.94
2018-12-02T10:28:32.414Z,23.93
2018-12-02T10:30:59.059Z,23.87
2018-12-02T10:33:25.758Z,23.93
2018-12-02T10:35:52.454Z,23.89
2018-12-02T10:38:19.091Z,23.86
2018-12-02T10:40:45.739Z,23.87
2018-12-02T10:43:12.431Z,23.75
2018-12-02T10:45:39.193Z,23.84
2018-12-02T10:48:05.843Z,23.85
2018-12-02T10:50:32.500Z,23.85
2018-12-02T10:52:59.137Z,23.86
2018-12-02T10:55:25.827Z,23.84
2018-12-02T10:57:52.466Z,23.82
2018-12-02T11:00:19.163Z,23.86
2018-12-02T11:02:45.804Z,23.84
2018-12-02T11:05:12.442Z,23.85
2018-12-02T11:07:39.101Z,23.82
2018-12-02T11:10:05.800Z,23.85
2018-12-02T11:12:32.448Z,23.79
2018-12-02T11:14:59.092Z,23.83
2018-12-02T11:17:25.738Z,23.83
2018-12-02T11:19:52.420Z,23.83
2018-12-02T11:22:19.058Z,23.85
2018-12-02T11:24:45.712Z,23.84
2018-12-02T11:27:12.371Z,23.82
2018-12-02T11:29:39.056Z,23.83
2018-12-02T11:32:05.686Z,23.84
2018-12-02T11:34:32.330Z,23.84
2018-12-02T11:36:58.985Z,23.84
2018-12-02T11:39:25.633Z,23.64
2018-12-02T11:41:52.316Z,23.44
2018-12-02T11:44:18.950Z,23.34
2018-12-02T11:46:45.596Z,23.22
2018-12-02T11:49:12.236Z,23.40
2018-12-02T11:51:38.875Z,23.51
2018-12-02T11:54:05.566Z,23.51
2018-12-02T11:56:32.217Z,23.64
2018-12-02T11:58:58.929Z,23.67
2018-12-02T12:01:25.568Z,23.66
2018-12-02T12:03:52.201Z,23.74
2018-12-02T12:06:18.899Z,23.79
2018-12-02T12:08:46.586Z,23.80
2018-12-02T12:11:13.318Z,23.81
2018-12-02T12:13:39.935Z,23.82
2018-12-02T12:16:06.623Z,23.79
2018-12-02T12:18:33.310Z,23.83
2018-12-02T12:20:59.956Z,23.82
2018-12-02T12:23:26.595Z,23.78
2018-12-02T12:25:53.278Z,23.76
2018-12-02T12:28:19.921Z,23.78
2018-12-02T12:30:46.579Z,23.77
2018-12-02T12:33:13.214Z,23.76
2018-12-02T12:35:39.859Z,23.76
2018-12-02T12:38:06.496Z,23.76
2018-12-02T12:40:33.201Z,23.73
2018-12-02T12:42:59.842Z,23.74
2018-12-02T12:45:29.355Z,23.72
2018-12-02T12:47:56.049Z,23.74
2018-12-02T12:50:22.690Z,23.74
2018-12-02T12:52:49.384Z,23.77
2018-12-02T12:55:16.079Z,23.75
2018-12-02T12:57:42.767Z,23.77
2018-12-02T13:00:09.406Z,23.78
2018-12-02T13:02:36.094Z,23.79
2018-12-02T13:05:02.744Z,23.74
2018-12-02T13:07:29.436Z,23.76
2018-12-02T13:09:56.129Z,23.77
2018-12-02T13:12:22.779Z,23.75
2018-12-02T13:14:49.432Z,23.75
2018-12-02T13:17:16.140Z,23.77
2018-12-02T13:19:42.780Z,23.74
2018-12-02T13:22:09.483Z,23.78
2018-12-02T13:24:36.120Z,23.75
2018-12-02T13:27:02.752Z,23.80
2018-12-02T13:29:29.568Z,23.73
2018-12-02T13:31:56.206Z,23.79
2018-12-02T13:34:22.852Z,23.78
2018-12-02T13:36:49.484Z,23.78
2018-12-02T13:39:16.187Z,23.74
2018-12-02T13:41:42.888Z,23.77
2018-12-02T13:44:09.533Z,23.79
2018-12-02T13:46:36.189Z,23.76
2018-12-02T13:49:02.873Z,23.78
2018-12-02T13:51:29.566Z,23.76
2018-12-02T13:53:56.219Z,23.76
2018-12-02T13:56:23.177Z,23.75
2018-12-02T13:58:49.635Z,23.75
2018-12-02T14:01:16.279Z,23.74
2018-12-02T14:03:42.927Z,23.71
2018-12-02T14:06:09.574Z,23.69
2018-12-02T14:08:36.282Z,23.73
2018-12-02T14:11:02.926Z,23.67
2018-12-02T14:13:29.574Z,23.68
2018-12-02T14:15:57.280Z,23.66
2018-12-02T14:18:23.927Z,23.69
2018-12-02T14:20:50.568Z,23.60
2018-12-02T14:23:17.231Z,23.61
2018-12-02T14:25:43.926Z,23.62
2018-12-02T14:28:10.573Z,23.54
2018-12-02T14:30:37.244Z,23.59
2018-12-02T14:33:03.968Z,23.58
2018-12-02T14:35:30.603Z,23.51
2018-12-02T14:37:57.241Z,23.53
2018-12-02T14:40:23.907Z,23.51
2018-12-02T14:42:50.622Z,23.53
2018-12-02T14:45:17.254Z,23.50
2018-12-02T14:47:43.898Z,23.49
2018-12-02T14:50:10.559Z,23.48
2018-12-02T14:52:37.208Z,23.48
2018-12-02T14:55:03.847Z,23.46
2018-12-02T14:57:30.531Z,23.41
2018-12-02T14:59:57.169Z,23.44
2018-12-02T15:02:23.792Z,23.43
2018-12-02T15:04:50.445Z,23.49
2018-12-02T15:07:17.097Z,23.44
2018-12-02T15:09:43.748Z,23.43
2018-12-02T15:12:10.396Z,23.41
2018-12-02T15:14:37.041Z,23.40
2018-12-02T15:17:03.698Z,23.37
2018-12-02T15:19:30.371Z,23.35
2018-12-02T15:21:57.026Z,23.37
2018-12-02T15:24:23.700Z,23.36
2018-12-02T15:26:50.347Z,23.33
2018-12-02T15:29:16.990Z,23.34
2018-12-02T15:31:43.628Z,23.36
2018-12-02T15:34:10.281Z,23.31
2018-12-02T15:36:36.917Z,23.30
2018-12-02T15:39:03.573Z,23.29
2018-12-02T15:41:30.316Z,23.26
2018-12-02T15:43:56.948Z,23.25
2018-12-02T15:46:23.591Z,23.21
2018-12-02T15:48:50.238Z,23.27
2018-12-02T15:51:16.905Z,23.21
2018-12-02T15:53:43.550Z,23.16
2018-12-02T15:56:10.190Z,23.17
2018-12-02T15:58:36.844Z,23.16
2018-12-02T16:01:03.480Z,23.17
2018-12-02T16:03:30.138Z,23.23
2018-12-02T16:05:56.806Z,23.18
2018-12-02T16:08:23.458Z,23.15
2018-12-02T16:10:50.102Z,23.16
2018-12-02T16:13:16.738Z,23.08
2018-12-02T16:15:43.419Z,23.11
2018-12-02T16:18:10.077Z,23.19
2018-12-02T16:20:36.748Z,23.15
2018-12-02T16:23:03.393Z,23.20
2018-12-02T16:25:30.041Z,23.18
2018-12-02T16:27:56.693Z,23.15
2018-12-02T16:30:23.343Z,23.17
2018-12-02T16:32:49.990Z,23.22
2018-12-02T16:35:16.632Z,23.15
2018-12-02T16:37:43.285Z,23.27
2018-12-02T16:40:09.924Z,23.21
2018-12-02T16:42:36.583Z,23.25
2018-12-02T16:45:03.281Z,23.18
2018-12-02T16:47:29.923Z,23.20
2018-12-02T16:49:56.555Z,23.23
2018-12-02T16:52:23.211Z,23.20
2018-12-02T16:54:49.870Z,23.20
2018-12-02T16:57:16.531Z,23.25
2018-12-02T16:59:43.173Z,23.17
2018-12-02T17:02:09.818Z,23.23
2018-12-02T17:04:36.467Z,23.25
2018-12-02T17:07:03.107Z,23.19
2018-12-02T17:09:29.766Z,23.22
2018-12-02T17:11:56.428Z,23.19
2018-12-02T17:14:23.083Z,23.20
2018-12-02T17:16:49.737Z,23.26
2018-12-02T17:19:16.393Z,23.23
2018-12-02T17:21:43.025Z,23.21
2018-12-02T17:24:09.722Z,23.21
2018-12-02T17:26:36.369Z,23.18
2018-12-02T17:29:03.039Z,23.25
2018-12-02T17:31:29.690Z,23.25
2018-12-02T17:33:56.365Z,23.24
2018-12-02T17:36:23.021Z,23.23
2018-12-02T17:38:49.668Z,23.25
2018-12-02T17:41:16.328Z,23.22
2018-12-02T17:43:42.974Z,23.17
2018-12-02T17:46:09.640Z,23.23
2018-12-02T17:48:36.295Z,23.24
2018-12-02T17:51:02.953Z,23.25
2018-12-02T17:53:29.611Z,23.19
2018-12-02T17:55:56.263Z,23.19
2018-12-02T17:58:22.936Z,23.21
2018-12-02T18:00:49.571Z,23.24
2018-12-02T18:03:16.212Z,23.19
2018-12-02T18:05:42.879Z,23.18
2018-12-02T18:08:09.538Z,23.17
2018-12-02T18:10:36.199Z,23.20
2018-12-02T18:13:02.848Z,23.21
2018-12-02T18:15:29.657Z,23.22
2018-12-02T18:17:56.295Z,23.15
2018-12-02T18:20:22.952Z,23.21
2018-12-02T18:22:49.619Z,23.22
2018-12-02T18:25:16.265Z,23.14
2018-12-02T18:27:42.958Z,23.12
2018-12-02T18:30:09.661Z,23.14
2018-12-02T18:32:36.318Z,23.11
2018-12-02T18:35:02.983Z,23.14
2018-12-02T18:37:29.797Z,23.15
2018-12-02T18:39:56.548Z,23.16
2018-12-02T18:42:23.196Z,23.20
2018-12-02T18:44:49.923Z,23.15
2018-12-02T18:47:16.557Z,23.12
2018-12-02T18:49:43.228Z,23.16
2018-12-02T18:52:09.878Z,23.15
2018-12-02T18:54:36.525Z,23.12
2018-12-02T18:57:03.170Z,23.14
2018-12-02T18:59:29.813Z,23.16
2018-12-02T19:01:56.480Z,23.13
2018-12-02T19:04:23.118Z,23.16
2018-12-02T19:06:49.785Z,23.10
2018-12-02T19:09:16.448Z,23.02
2018-12-02T19:11:43.123Z,22.89
2018-12-02T19:14:09.838Z,22.99
2018-12-02T19:16:36.577Z,22.99
2018-12-02T19:19:03.231Z,22.96
2018-12-02T19:21:29.873Z,22.96
2018-12-02T19:23:56.573Z,22.95
2018-12-02T19:26:23.231Z,22.98
2018-12-02T19:28:49.895Z,22.96
2018-12-02T19:31:16.533Z,23.03
2018-12-02T19:33:43.181Z,23.03
2018-12-02T19:36:09.828Z,23.04
2018-12-02T19:38:36.642Z,23.13
2018-12-02T19:41:03.293Z,23.07
2018-12-02T19:43:29.990Z,23.06
2018-12-02T19:45:56.641Z,22.82
2018-12-02T19:48:23.289Z,22.60
2018-12-02T19:50:49.937Z,22.50
2018-12-02T19:53:16.666Z,22.44
2018-12-02T19:55:43.315Z,22.62
2018-12-02T19:58:09.957Z,22.63
2018-12-02T20:00:36.614Z,22.63
2018-12-02T20:03:03.252Z,22.69
2018-12-02T20:05:29.908Z,22.67
2018-12-02T20:07:56.560Z,22.71
2018-12-02T20:10:23.210Z,22.79
2018-12-02T20:12:49.868Z,22.75
2018-12-02T20:15:16.518Z,22.75
2018-12-02T20:17:43.161Z,22.80
2018-12-02T20:20:09.910Z,22.79
2018-12-02T20:22:36.559Z,22.82
2018-12-02T20:25:03.252Z,22.78
2018-12-02T20:27:29.907Z,22.83
2018-12-02T20:29:56.562Z,22.82
2018-12-02T20:32:23.196Z,22.82
2018-12-02T20:34:49.840Z,22.84
2018-12-02T20:37:16.483Z,22.80
2018-12-02T20:39:43.133Z,22.83
2018-12-02T20:42:09.791Z,22.80
2018-12-02T20:44:36.442Z,22.69
2018-12-02T20:47:03.078Z,22.78
2018-12-02T20:49:29.740Z,22.75
2018-12-02T20:51:56.382Z,22.67
2018-12-02T20:54:23.033Z,22.71
2018-12-02T20:56:49.683Z,22.74
2018-12-02T20:59:16.343Z,22.73
2018-12-02T21:01:42.987Z,22.77
2018-12-02T21:04:09.641Z,22.72
2018-12-02T21:06:36.321Z,22.73
2018-12-02T21:09:02.982Z,22.77
2018-12-02T21:11:29.621Z,22.81
2018-12-02T21:13:56.269Z,22.74
2018-12-02T21:16:22.958Z,22.77
2018-12-02T21:18:49.601Z,22.82
2018-12-02T21:21:16.331Z,22.79
2018-12-02T21:23:43.029Z,22.74
2018-12-02T21:26:09.675Z,22.77
2018-12-02T21:28:36.325Z,22.66
2018-12-02T21:31:02.963Z,22.61
2018-12-02T21:33:29.618Z,22.71
2018-12-02T21:35:56.273Z,22.69
2018-12-02T21:38:22.924Z,22.70
2018-12-02T21:40:49.569Z,22.67
2018-12-02T21:43:16.209Z,22.66
2018-12-02T21:45:42.846Z,22.69
2018-12-02T21:48:09.492Z,22.70
2018-12-02T21:50:36.138Z,22.75
2018-12-02T21:53:02.813Z,22.72
2018-12-02T21:55:29.441Z,22.75
2018-12-02T21:57:56.090Z,22.77
2018-12-02T22:00:22.736Z,22.76
2018-12-02T22:02:49.386Z,22.76
2018-12-02T22:05:16.027Z,22.77
2018-12-02T22:07:42.673Z,22.77
2018-12-02T22:10:09.384Z,22.75
2018-12-02T22:12:36.069Z,22.63
2018-12-02T22:15:02.673Z,22.60
2018-12-02T22:17:29.381Z,22.73
2018-12-02T22:19:56.042Z,22.59
2018-12-02T22:22:22.678Z,22.57
2018-12-02T22:24:49.319Z,22.61
2018-12-02T22:27:16.089Z,22.62
2018-12-02T22:29:42.730Z,22.65
2018-12-02T22:32:09.368Z,22.70
2018-12-02T22:34:36.014Z,22.67
2018-12-02T22:37:02.675Z,22.72
2018-12-02T22:39:29.315Z,22.69
2018-12-02T22:41:56.053Z,22.70
2018-12-02T22:44:22.689Z,22.73
2018-12-02T22:46:49.339Z,22.74
2018-12-02T22:49:15.995Z,22.72
2018-12-02T22:51:42.703Z,22.74
2018-12-02T22:54:09.385Z,22.72
2018-12-02T22:56:35.996Z,22.58
2018-12-02T22:59:02.699Z,22.55
2018-12-02T23:01:29.342Z,22.56
2018-12-02T23:03:55.985Z,22.61
2018-12-02T23:06:22.634Z,22.53
2018-12-02T23:08:49.323Z,22.61
2018-12-02T23:11:15.970Z,22.54
2018-12-02T23:13:42.679Z,22.55
2018-12-02T23:16:09.317Z,22.60
2018-12-02T23:18:35.963Z,22.61
2018-12-02T23:21:02.614Z,22.58
2018-12-02T23:23:29.264Z,22.56
2018-12-02T23:25:55.968Z,22.57
2018-12-02T23:28:22.614Z,22.61
2018-12-02T23:30:49.265Z,22.59
2018-12-02T23:33:15.912Z,22.62
2018-12-02T23:35:42.557Z,22.65
2018-12-02T23:38:09.258Z,22.63
2018-12-02T23:40:35.903Z,22.48
2018-12-02T23:43:02.601Z,22.50
2018-12-02T23:45:29.376Z,22.53
2018-12-02T23:47:56.012Z,22.49
2018-12-02T23:50:22.721Z,22.46
2018-12-02T23:52:49.370Z,22.45
2018-12-02T23:55:16.008Z,22.52
2018-12-02T23:57:42.649Z,22.52
